sensor_id;sensor_type;location;lat;lon;timestamp;pressure;altitude;pressure_sealevel;temperature;humidity
74633;BME280;63139;52.018;8.552;2023-02-01T00:01:51;100626.59;;;3.23;86.84
74633;BME280;63139;52.018;8.552;2023-02-01T00:04:19;100621.00;;;3.27;86.37
74633;BME280;63139;52.018;8.552;2023-02-01T00:06:47;100614.81;;;3.28;86.34
74633;BME280;63139;52.018;8.552;2023-02-01T00:09:14;100606.66;;;3.33;86.52
74633;BME280;63139;52.018;8.552;2023-02-01T00:11:44;100607.13;;;3.38;86.28
74633;BME280;63139;52.018;8.552;2023-02-01T00:14:11;100609.47;;;3.41;85.86
74633;BME280;63139;52.018;8.552;2023-02-01T00:16:39;100610.69;;;3.48;85.53
74633;BME280;63139;52.018;8.552;2023-02-01T00:19:10;100618.16;;;3.53;85.52
74633;BME280;63139;52.018;8.552;2023-02-01T00:21:38;100617.94;;;3.56;85.14
74633;BME280;63139;52.018;8.552;2023-02-01T00:24:06;100615.78;;;3.61;84.93
74633;BME280;63139;52.018;8.552;2023-02-01T00:26:36;100609.34;;;3.65;84.76
74633;BME280;63139;52.018;8.552;2023-02-01T00:29:09;100619.47;;;3.69;84.80
74633;BME280;63139;52.018;8.552;2023-02-01T00:31:38;100619.22;;;3.72;84.35
74633;BME280;63139;52.018;8.552;2023-02-01T00:34:06;100617.09;;;3.77;84.20
74633;BME280;63139;52.018;8.552;2023-02-01T00:36:35;100607.31;;;3.79;84.26
74633;BME280;63139;52.018;8.552;2023-02-01T00:39:02;100604.69;;;3.79;84.01
74633;BME280;63139;52.018;8.552;2023-02-01T00:41:30;100600.06;;;3.83;83.94
74633;BME280;63139;52.018;8.552;2023-02-01T00:43:58;100592.19;;;3.83;83.89
74633;BME280;63139;52.018;8.552;2023-02-01T00:46:27;100593.25;;;3.80;83.48
74633;BME280;63139;52.018;8.552;2023-02-01T00:48:56;100593.53;;;3.77;83.45
74633;BME280;63139;52.018;8.552;2023-02-01T00:51:27;100596.38;;;3.74;83.73
74633;BME280;63139;52.018;8.552;2023-02-01T00:53:56;100599.94;;;3.73;83.26
74633;BME280;63139;52.018;8.552;2023-02-01T00:56:24;100586.13;;;3.71;83.49
74633;BME280;63139;52.018;8.552;2023-02-01T00:58:53;100588.63;;;3.73;83.53
74633;BME280;63139;52.018;8.552;2023-02-01T01:01:22;100591.97;;;3.75;83.56
74633;BME280;63139;52.018;8.552;2023-02-01T01:03:54;100593.38;;;3.79;83.41
74633;BME280;63139;52.018;8.552;2023-02-01T01:06:23;100598.50;;;3.80;83.37
74633;BME280;63139;52.018;8.552;2023-02-01T01:08:51;100597.31;;;3.84;83.49
74633;BME280;63139;52.018;8.552;2023-02-01T01:11:22;100594.44;;;3.87;83.42
74633;BME280;63139;52.018;8.552;2023-02-01T01:13:51;100582.06;;;3.89;82.80
74633;BME280;63139;52.018;8.552;2023-02-01T01:16:21;100588.72;;;3.94;83.14
74633;BME280;63139;52.018;8.552;2023-02-01T01:18:49;100584.19;;;3.96;82.85
74633;BME280;63139;52.018;8.552;2023-02-01T01:21:19;100582.84;;;4.01;83.04
74633;BME280;63139;52.018;8.552;2023-02-01T01:23:47;100573.09;;;4.03;82.89
74633;BME280;63139;52.018;8.552;2023-02-01T01:26:16;100578.09;;;4.06;82.68
74633;BME280;63139;52.018;8.552;2023-02-01T01:28:44;100590.09;;;4.09;82.87
74633;BME280;63139;52.018;8.552;2023-02-01T01:31:14;100588.19;;;4.11;82.64
74633;BME280;63139;52.018;8.552;2023-02-01T01:33:43;100589.63;;;4.15;82.90
74633;BME280;63139;52.018;8.552;2023-02-01T01:36:12;100589.34;;;4.18;82.56
74633;BME280;63139;52.018;8.552;2023-02-01T01:38:42;100584.94;;;4.18;82.57
74633;BME280;63139;52.018;8.552;2023-02-01T01:41:14;100578.63;;;4.21;82.57
74633;BME280;63139;52.018;8.552;2023-02-01T01:43:48;100580.44;;;4.20;83.03
74633;BME280;63139;52.018;8.552;2023-02-01T01:46:18;100589.81;;;4.23;82.83
74633;BME280;63139;52.018;8.552;2023-02-01T01:48:49;100582.94;;;4.22;82.89
74633;BME280;63139;52.018;8.552;2023-02-01T01:51:20;100572.44;;;4.22;83.12
74633;BME280;63139;52.018;8.552;2023-02-01T01:53:57;100583.03;;;4.20;83.23
74633;BME280;63139;52.018;8.552;2023-02-01T01:56:28;100578.75;;;4.19;83.14
74633;BME280;63139;52.018;8.552;2023-02-01T01:58:58;100574.34;;;4.20;83.30
74633;BME280;63139;52.018;8.552;2023-02-01T02:01:27;100570.78;;;4.21;83.21
74633;BME280;63139;52.018;8.552;2023-02-01T02:03:56;100556.00;;;4.20;83.49
74633;BME280;63139;52.018;8.552;2023-02-01T02:06:33;100557.41;;;4.24;83.43
74633;BME280;63139;52.018;8.552;2023-02-01T02:09:03;100551.34;;;4.23;83.28
74633;BME280;63139;52.018;8.552;2023-02-01T02:11:33;100555.25;;;4.29;83.30
74633;BME280;63139;52.018;8.552;2023-02-01T02:14:01;100548.81;;;4.33;83.27
74633;BME280;63139;52.018;8.552;2023-02-01T02:16:40;100547.72;;;4.36;83.17
74633;BME280;63139;52.018;8.552;2023-02-01T02:19:44;100541.38;;;4.38;82.67
74633;BME280;63139;52.018;8.552;2023-02-01T02:22:31;100543.03;;;4.39;82.37
74633;BME280;63139;52.018;8.552;2023-02-01T02:25:42;100539.47;;;4.40;82.21
74633;BME280;63139;52.018;8.552;2023-02-01T02:28:23;100526.97;;;4.44;82.28
74633;BME280;63139;52.018;8.552;2023-02-01T02:33:58;100524.91;;;4.47;82.15
74633;BME280;63139;52.018;8.552;2023-02-01T02:36:38;100517.88;;;4.48;81.86
74633;BME280;63139;52.018;8.552;2023-02-01T02:39:18;100522.72;;;4.52;81.81
74633;BME280;63139;52.018;8.552;2023-02-01T02:41:55;100515.19;;;4.59;81.66
74633;BME280;63139;52.018;8.552;2023-02-01T02:44:47;100501.69;;;4.63;81.33
74633;BME280;63139;52.018;8.552;2023-02-01T02:47:54;100497.00;;;4.67;81.15
74633;BME280;63139;52.018;8.552;2023-02-01T02:50:27;100491.50;;;4.70;80.98
74633;BME280;63139;52.018;8.552;2023-02-01T02:53:17;100488.88;;;4.70;80.57
74633;BME280;63139;52.018;8.552;2023-02-01T02:56:06;100484.22;;;4.74;80.78
74633;BME280;63139;52.018;8.552;2023-02-01T02:58:52;100482.28;;;4.76;80.08
74633;BME280;63139;52.018;8.552;2023-02-01T03:01:39;100482.88;;;4.79;80.34
74633;BME280;63139;52.018;8.552;2023-02-01T03:04:25;100468.78;;;4.80;79.72
74633;BME280;63139;52.018;8.552;2023-02-01T03:06:54;100476.25;;;4.85;79.67
74633;BME280;63139;52.018;8.552;2023-02-01T03:09:26;100474.06;;;4.90;79.31
74633;BME280;63139;52.018;8.552;2023-02-01T03:12:01;100473.94;;;4.91;79.37
74633;BME280;63139;52.018;8.552;2023-02-01T03:14:52;100481.44;;;4.96;79.25
74633;BME280;63139;52.018;8.552;2023-02-01T03:17:27;100469.13;;;4.96;78.68
74633;BME280;63139;52.018;8.552;2023-02-01T03:19:59;100458.06;;;4.93;78.31
74633;BME280;63139;52.018;8.552;2023-02-01T03:22:30;100478.25;;;5.02;78.31
74633;BME280;63139;52.018;8.552;2023-02-01T03:25:03;100477.97;;;5.05;78.47
74633;BME280;63139;52.018;8.552;2023-02-01T03:27:35;100459.63;;;5.05;77.55
74633;BME280;63139;52.018;8.552;2023-02-01T03:30:12;100464.47;;;5.10;77.57
74633;BME280;63139;52.018;8.552;2023-02-01T03:32:47;100461.88;;;5.10;77.68
74633;BME280;63139;52.018;8.552;2023-02-01T03:35:30;100454.81;;;5.10;77.17
74633;BME280;63139;52.018;8.552;2023-02-01T03:38:09;100433.66;;;5.12;77.38
74633;BME280;63139;52.018;8.552;2023-02-01T03:40:41;100428.00;;;5.06;77.15
74633;BME280;63139;52.018;8.552;2023-02-01T03:43:16;100433.38;;;5.05;77.01
74633;BME280;63139;52.018;8.552;2023-02-01T03:45:50;100432.41;;;5.06;77.06
74633;BME280;63139;52.018;8.552;2023-02-01T03:48:21;100435.75;;;5.08;77.16
74633;BME280;63139;52.018;8.552;2023-02-01T03:50:55;100437.84;;;5.14;77.19
74633;BME280;63139;52.018;8.552;2023-02-01T03:53:26;100428.03;;;5.16;77.13
74633;BME280;63139;52.018;8.552;2023-02-01T03:55:55;100428.03;;;5.16;76.55
74633;BME280;63139;52.018;8.552;2023-02-01T03:58:24;100429.00;;;5.15;76.73
74633;BME280;63139;52.018;8.552;2023-02-01T04:00:54;100429.97;;;5.14;76.67
74633;BME280;63139;52.018;8.552;2023-02-01T04:03:24;100427.91;;;5.18;76.84
74633;BME280;63139;52.018;8.552;2023-02-01T04:05:53;100414.91;;;5.16;76.91
74633;BME280;63139;52.018;8.552;2023-02-01T04:08:26;100424.63;;;5.25;77.14
74633;BME280;63139;52.018;8.552;2023-02-01T04:10:53;100405.00;;;5.29;76.36
74633;BME280;63139;52.018;8.552;2023-02-01T04:13:21;100407.34;;;5.32;76.69
74633;BME280;63139;52.018;8.552;2023-02-01T04:15:49;100404.03;;;5.30;76.03
74633;BME280;63139;52.018;8.552;2023-02-01T04:18:17;100385.63;;;5.21;76.42
74633;BME280;63139;52.018;8.552;2023-02-01T04:20:45;100396.03;;;5.32;76.93
74633;BME280;63139;52.018;8.552;2023-02-01T04:23:12;100404.31;;;5.37;76.38
74633;BME280;63139;52.018;8.552;2023-02-01T04:25:43;100395.34;;;5.39;75.95
74633;BME280;63139;52.018;8.552;2023-02-01T04:28:11;100394.91;;;5.44;76.02
74633;BME280;63139;52.018;8.552;2023-02-01T04:30:39;100396.72;;;5.43;75.51
74633;BME280;63139;52.018;8.552;2023-02-01T04:33:07;100398.38;;;5.44;75.78
74633;BME280;63139;52.018;8.552;2023-02-01T04:35:35;100395.63;;;5.46;76.03
74633;BME280;63139;52.018;8.552;2023-02-01T04:38:03;100400.88;;;5.46;75.77
74633;BME280;63139;52.018;8.552;2023-02-01T04:40:30;100386.50;;;5.50;76.08
74633;BME280;63139;52.018;8.552;2023-02-01T04:43:00;100384.56;;;5.52;76.09
74633;BME280;63139;52.018;8.552;2023-02-01T04:45:28;100397.44;;;5.55;76.42
74633;BME280;63139;52.018;8.552;2023-02-01T04:47:56;100392.19;;;5.55;77.56
74633;BME280;63139;52.018;8.552;2023-02-01T04:50:24;100397.13;;;5.48;77.62
74633;BME280;63139;52.018;8.552;2023-02-01T04:52:51;100393.25;;;5.43;78.59
74633;BME280;63139;52.018;8.552;2023-02-01T04:55:19;100395.47;;;5.38;78.91
74633;BME280;63139;52.018;8.552;2023-02-01T04:57:47;100377.81;;;5.40;80.11
74633;BME280;63139;52.018;8.552;2023-02-01T05:00:17;100375.31;;;5.38;79.66
74633;BME280;63139;52.018;8.552;2023-02-01T05:02:45;100373.91;;;5.34;79.66
74633;BME280;63139;52.018;8.552;2023-02-01T05:05:13;100376.81;;;5.31;80.01
74633;BME280;63139;52.018;8.552;2023-02-01T05:07:41;100381.25;;;5.31;80.49
74633;BME280;63139;52.018;8.552;2023-02-01T05:10:09;100385.91;;;5.27;80.70
74633;BME280;63139;52.018;8.552;2023-02-01T05:12:37;100371.44;;;5.23;80.30
74633;BME280;63139;52.018;8.552;2023-02-01T05:15:24;100371.69;;;5.20;80.45
74633;BME280;63139;52.018;8.552;2023-02-01T05:17:52;100386.75;;;5.18;81.28
74633;BME280;63139;52.018;8.552;2023-02-01T05:20:20;100378.88;;;5.18;81.04
74633;BME280;63139;52.018;8.552;2023-02-01T05:22:48;100375.28;;;5.19;81.79
74633;BME280;63139;52.018;8.552;2023-02-01T05:25:16;100342.38;;;5.05;81.68
74633;BME280;63139;52.018;8.552;2023-02-01T05:27:45;100368.53;;;5.17;81.90
74633;BME280;63139;52.018;8.552;2023-02-01T05:30:14;100348.06;;;5.11;81.59
74633;BME280;63139;52.018;8.552;2023-02-01T05:32:43;100360.66;;;5.17;82.06
74633;BME280;63139;52.018;8.552;2023-02-01T05:35:11;100362.31;;;5.18;82.27
74633;BME280;63139;52.018;8.552;2023-02-01T05:37:39;100343.38;;;5.14;82.18
74633;BME280;63139;52.018;8.552;2023-02-01T05:40:07;100347.66;;;5.15;81.53
74633;BME280;63139;52.018;8.552;2023-02-01T05:42:35;100344.91;;;5.17;81.78
74633;BME280;63139;52.018;8.552;2023-02-01T05:45:04;100350.28;;;5.15;81.53
74633;BME280;63139;52.018;8.552;2023-02-01T05:47:34;100351.13;;;5.16;81.68
74633;BME280;63139;52.018;8.552;2023-02-01T05:50:04;100356.63;;;5.13;81.76
74633;BME280;63139;52.018;8.552;2023-02-01T05:52:33;100346.81;;;5.15;81.95
74633;BME280;63139;52.018;8.552;2023-02-01T05:55:00;100342.84;;;5.11;81.79
74633;BME280;63139;52.018;8.552;2023-02-01T05:57:28;100346.97;;;5.13;82.21
74633;BME280;63139;52.018;8.552;2023-02-01T05:59:56;100357.59;;;5.12;81.68
74633;BME280;63139;52.018;8.552;2023-02-01T06:02:26;100349.72;;;5.12;81.62
74633;BME280;63139;52.018;8.552;2023-02-01T06:04:54;100347.09;;;5.12;81.64
74633;BME280;63139;52.018;8.552;2023-02-01T06:07:23;100355.41;;;5.17;81.08
74633;BME280;63139;52.018;8.552;2023-02-01T06:09:53;100345.03;;;5.15;80.53
74633;BME280;63139;52.018;8.552;2023-02-01T06:12:21;100339.53;;;5.18;80.57
74633;BME280;63139;52.018;8.552;2023-02-01T06:14:49;100342.69;;;5.22;80.50
74633;BME280;63139;52.018;8.552;2023-02-01T06:17:17;100337.00;;;5.26;80.89
74633;BME280;63139;52.018;8.552;2023-02-01T06:19:45;100342.97;;;5.28;80.48
74633;BME280;63139;52.018;8.552;2023-02-01T06:22:14;100329.56;;;5.31;80.41
74633;BME280;63139;52.018;8.552;2023-02-01T06:24:44;100328.59;;;5.23;79.59
74633;BME280;63139;52.018;8.552;2023-02-01T06:27:11;100360.38;;;5.29;79.14
74633;BME280;63139;52.018;8.552;2023-02-01T06:29:39;100354.16;;;5.30;79.21
74633;BME280;63139;52.018;8.552;2023-02-01T06:32:07;100350.84;;;5.28;79.65
74633;BME280;63139;52.018;8.552;2023-02-01T06:34:35;100363.97;;;5.28;79.63
74633;BME280;63139;52.018;8.552;2023-02-01T06:37:03;100362.03;;;5.30;79.43
74633;BME280;63139;52.018;8.552;2023-02-01T06:39:31;100355.25;;;5.28;79.37
74633;BME280;63139;52.018;8.552;2023-02-01T06:42:00;100364.53;;;5.32;79.04
74633;BME280;63139;52.018;8.552;2023-02-01T06:44:28;100368.41;;;5.37;79.33
74633;BME280;63139;52.018;8.552;2023-02-01T06:46:56;100373.91;;;5.34;79.03
74633;BME280;63139;52.018;8.552;2023-02-01T06:49:24;100373.66;;;5.37;78.82
74633;BME280;63139;52.018;8.552;2023-02-01T06:51:52;100368.25;;;5.39;78.78
74633;BME280;63139;52.018;8.552;2023-02-01T06:54:19;100358.44;;;5.41;78.34
74633;BME280;63139;52.018;8.552;2023-02-01T06:56:47;100380.00;;;5.44;78.60
74633;BME280;63139;52.018;8.552;2023-02-01T06:59:16;100395.63;;;5.46;78.55
74633;BME280;63139;52.018;8.552;2023-02-01T07:01:44;100390.75;;;5.41;77.96
74633;BME280;63139;52.018;8.552;2023-02-01T07:04:12;100388.28;;;5.50;78.61
74633;BME280;63139;52.018;8.552;2023-02-01T07:06:40;100392.31;;;5.54;78.16
74633;BME280;63139;52.018;8.552;2023-02-01T07:09:09;100396.03;;;5.51;78.09
74633;BME280;63139;52.018;8.552;2023-02-01T07:11:38;100391.47;;;5.53;77.88
74633;BME280;63139;52.018;8.552;2023-02-01T07:14:09;100393.28;;;5.53;78.20
74633;BME280;63139;52.018;8.552;2023-02-01T07:16:39;100393.97;;;5.55;77.95
74633;BME280;63139;52.018;8.552;2023-02-01T07:19:06;100398.53;;;5.53;77.99
74633;BME280;63139;52.018;8.552;2023-02-01T07:21:34;100403.09;;;5.60;78.17
74633;BME280;63139;52.018;8.552;2023-02-01T07:24:03;100408.22;;;5.62;78.03
74633;BME280;63139;52.018;8.552;2023-02-01T07:26:30;100405.00;;;5.58;78.06
74633;BME280;63139;52.018;8.552;2023-02-01T07:28:58;100412.34;;;5.64;77.86
74633;BME280;63139;52.018;8.552;2023-02-01T07:31:26;100418.41;;;5.65;77.70
74633;BME280;63139;52.018;8.552;2023-02-01T07:33:56;100415.66;;;5.66;77.46
74633;BME280;63139;52.018;8.552;2023-02-01T07:36:25;100420.91;;;5.66;77.46
74633;BME280;63139;52.018;8.552;2023-02-01T07:38:52;100421.31;;;5.71;77.01
74633;BME280;63139;52.018;8.552;2023-02-01T07:41:22;100433.50;;;5.72;77.57
74633;BME280;63139;52.018;8.552;2023-02-01T07:43:52;100426.31;;;5.74;77.06
74633;BME280;63139;52.018;8.552;2023-02-01T07:46:20;100423.13;;;5.80;76.96
74633;BME280;63139;52.018;8.552;2023-02-01T07:48:48;100424.91;;;5.80;76.76
74633;BME280;63139;52.018;8.552;2023-02-01T07:51:17;100420.75;;;5.87;76.77
74633;BME280;63139;52.018;8.552;2023-02-01T07:53:45;100433.22;;;5.85;76.93
74633;BME280;63139;52.018;8.552;2023-02-01T07:56:15;100433.50;;;5.82;76.79
74633;BME280;63139;52.018;8.552;2023-02-01T07:58:47;100424.69;;;5.93;77.28
74633;BME280;63139;52.018;8.552;2023-02-01T08:01:16;100440.84;;;5.98;76.75
74633;BME280;63139;52.018;8.552;2023-02-01T08:03:47;100434.63;;;5.99;76.74
74633;BME280;63139;52.018;8.552;2023-02-01T08:06:16;100437.25;;;5.99;76.72
74633;BME280;63139;52.018;8.552;2023-02-01T08:08:46;100414.97;;;5.83;76.91
74633;BME280;63139;52.018;8.552;2023-02-01T08:11:14;100427.97;;;5.95;77.08
74633;BME280;63139;52.018;8.552;2023-02-01T08:13:42;100439.06;;;5.98;77.24
74633;BME280;63139;52.018;8.552;2023-02-01T08:16:12;100432.69;;;5.91;77.24
74633;BME280;63139;52.018;8.552;2023-02-01T08:18:40;100440.97;;;5.96;77.42
74633;BME280;63139;52.018;8.552;2023-02-01T08:21:10;100426.88;;;6.07;76.88
74633;BME280;63139;52.018;8.552;2023-02-01T08:23:41;100441.38;;;6.20;76.82
74633;BME280;63139;52.018;8.552;2023-02-01T08:26:11;100453.50;;;6.31;76.16
74633;BME280;63139;52.018;8.552;2023-02-01T08:28:42;100444.81;;;6.31;76.56
74633;BME280;63139;52.018;8.552;2023-02-01T08:31:12;100455.88;;;6.34;76.66
74633;BME280;63139;52.018;8.552;2023-02-01T08:33:42;100457.69;;;6.34;76.13
74633;BME280;63139;52.018;8.552;2023-02-01T08:36:11;100443.56;;;6.25;76.25
74633;BME280;63139;52.018;8.552;2023-02-01T08:38:40;100444.66;;;6.32;76.07
74633;BME280;63139;52.018;8.552;2023-02-01T08:41:10;100452.41;;;6.34;76.17
74633;BME280;63139;52.018;8.552;2023-02-01T08:43:38;100460.56;;;6.40;76.99
74633;BME280;63139;52.018;8.552;2023-02-01T08:46:07;100445.34;;;6.44;77.35
74633;BME280;63139;52.018;8.552;2023-02-01T08:48:35;100444.22;;;6.46;76.73
74633;BME280;63139;52.018;8.552;2023-02-01T08:51:05;100441.56;;;6.56;76.80
74633;BME280;63139;52.018;8.552;2023-02-01T08:53:33;100446.00;;;6.55;76.14
74633;BME280;63139;52.018;8.552;2023-02-01T08:56:04;100437.25;;;6.65;75.63
74633;BME280;63139;52.018;8.552;2023-02-01T08:58:33;100439.28;;;6.71;74.84
74633;BME280;63139;52.018;8.552;2023-02-01T09:01:03;100462.69;;;6.74;74.81
74633;BME280;63139;52.018;8.552;2023-02-01T09:03:31;100443.84;;;6.78;74.74
74633;BME280;63139;52.018;8.552;2023-02-01T09:06:00;100433.19;;;6.80;74.31
74633;BME280;63139;52.018;8.552;2023-02-01T09:08:28;100442.88;;;6.79;74.40
74633;BME280;63139;52.018;8.552;2023-02-01T09:10:59;100443.13;;;6.86;73.90
74633;BME280;63139;52.018;8.552;2023-02-01T09:13:30;100435.72;;;6.99;73.42
74633;BME280;63139;52.018;8.552;2023-02-01T09:16:00;100433.28;;;7.15;72.94
74633;BME280;63139;52.018;8.552;2023-02-01T09:18:28;100431.75;;;7.13;72.56
74633;BME280;63139;52.018;8.552;2023-02-01T09:20:56;100435.72;;;6.99;72.53
74633;BME280;63139;52.018;8.552;2023-02-01T09:23:24;100422.28;;;7.02;73.38
74633;BME280;63139;52.018;8.552;2023-02-01T09:25:52;100423.47;;;7.08;72.79
74633;BME280;63139;52.018;8.552;2023-02-01T09:28:19;100433.78;;;7.19;72.92
74633;BME280;63139;52.018;8.552;2023-02-01T09:30:48;100435.34;;;7.12;72.55
74633;BME280;63139;52.018;8.552;2023-02-01T09:33:16;100430.41;;;7.09;72.95
74633;BME280;63139;52.018;8.552;2023-02-01T09:35:44;100439.81;;;7.11;72.47
74633;BME280;63139;52.018;8.552;2023-02-01T09:38:12;100417.19;;;7.18;72.06
74633;BME280;63139;52.018;8.552;2023-02-01T09:40:42;100422.59;;;7.34;71.80
74633;BME280;63139;52.018;8.552;2023-02-01T09:43:21;100413.00;;;7.43;71.57
74633;BME280;63139;52.018;8.552;2023-02-01T09:45:59;100415.13;;;7.39;70.51
74633;BME280;63139;52.018;8.552;2023-02-01T09:48:32;100416.22;;;7.37;70.87
74633;BME280;63139;52.018;8.552;2023-02-01T09:51:04;100416.81;;;7.31;71.73
74633;BME280;63139;52.018;8.552;2023-02-01T09:53:36;100417.66;;;7.31;70.96
74633;BME280;63139;52.018;8.552;2023-02-01T09:56:07;100425.94;;;7.36;70.91
74633;BME280;63139;52.018;8.552;2023-02-01T09:58:42;100417.22;;;7.54;70.58
74633;BME280;63139;52.018;8.552;2023-02-01T10:01:17;100423.16;;;7.73;69.55
74633;BME280;63139;52.018;8.552;2023-02-01T10:03:46;100432.66;;;7.84;69.16
74633;BME280;63139;52.018;8.552;2023-02-01T10:06:33;100426.22;;;7.87;69.19
74633;BME280;63139;52.018;8.552;2023-02-01T10:09:15;100424.28;;;7.89;68.55
74633;BME280;63139;52.018;8.552;2023-02-01T10:12:00;100419.41;;;8.19;68.14
74633;BME280;63139;52.018;8.552;2023-02-01T10:14:41;100411.16;;;8.40;68.46
74633;BME280;63139;52.018;8.552;2023-02-01T10:17:25;100395.25;;;8.50;67.10
74633;BME280;63139;52.018;8.552;2023-02-01T10:20:07;100398.72;;;8.50;66.88
74633;BME280;63139;52.018;8.552;2023-02-01T10:22:40;100394.47;;;8.57;67.78
74633;BME280;63139;52.018;8.552;2023-02-01T10:25:32;100392.31;;;8.61;66.90
74633;BME280;63139;52.018;8.552;2023-02-01T10:28:03;100394.88;;;8.45;67.37
74633;BME280;63139;52.018;8.552;2023-02-01T10:30:38;100382.56;;;8.53;67.30
74633;BME280;63139;52.018;8.552;2023-02-01T10:33:14;100408.53;;;8.66;67.46
74633;BME280;63139;52.018;8.552;2023-02-01T10:35:44;100395.88;;;8.44;66.88
74633;BME280;63139;52.018;8.552;2023-02-01T10:38:19;100396.66;;;8.36;66.95
74633;BME280;63139;52.018;8.552;2023-02-01T10:40:51;100396.28;;;8.31;68.48
74633;BME280;63139;52.018;8.552;2023-02-01T10:43:20;100401.84;;;8.28;67.79
74633;BME280;63139;52.018;8.552;2023-02-01T10:45:48;100401.44;;;8.15;68.35
74633;BME280;63139;52.018;8.552;2023-02-01T10:48:18;100389.66;;;8.09;67.85
74633;BME280;63139;52.018;8.552;2023-02-01T10:50:49;100402.56;;;8.12;67.80
74633;BME280;63139;52.018;8.552;2023-02-01T10:53:22;100398.22;;;8.29;68.52
74633;BME280;63139;52.018;8.552;2023-02-01T10:55:52;100408.69;;;8.39;67.15
74633;BME280;63139;52.018;8.552;2023-02-01T10:58:26;100386.66;;;8.30;66.75
74633;BME280;63139;52.018;8.552;2023-02-01T11:00:57;100397.69;;;8.26;67.36
74633;BME280;63139;52.018;8.552;2023-02-01T11:03:39;100396.75;;;8.09;68.13
74633;BME280;63139;52.018;8.552;2023-02-01T11:06:17;100394.94;;;8.09;68.59
74633;BME280;63139;52.018;8.552;2023-02-01T11:08:47;100384.97;;;7.95;69.07
74633;BME280;63139;52.018;8.552;2023-02-01T11:11:15;100374.50;;;7.86;69.64
74633;BME280;63139;52.018;8.552;2023-02-01T11:13:51;100377.75;;;7.79;68.66
74633;BME280;63139;52.018;8.552;2023-02-01T11:16:20;100368.88;;;7.80;69.09
74633;BME280;63139;52.018;8.552;2023-02-01T11:18:53;100361.94;;;7.79;68.77
74633;BME280;63139;52.018;8.552;2023-02-01T11:21:22;100361.28;;;7.77;68.97
74633;BME280;63139;52.018;8.552;2023-02-01T11:23:50;100341.44;;;7.91;69.03
74633;BME280;63139;52.018;8.552;2023-02-01T11:26:21;100335.50;;;7.89;68.42
74633;BME280;63139;52.018;8.552;2023-02-01T11:28:54;100335.34;;;7.91;68.94
74633;BME280;63139;52.018;8.552;2023-02-01T11:31:24;100331.47;;;7.77;68.87
74633;BME280;63139;52.018;8.552;2023-02-01T11:34:04;100336.47;;;7.62;69.43
74633;BME280;63139;52.018;8.552;2023-02-01T11:36:35;100319.63;;;7.55;69.59
74633;BME280;63139;52.018;8.552;2023-02-01T11:39:10;100314.16;;;7.57;69.17
74633;BME280;63139;52.018;8.552;2023-02-01T11:41:55;100304.31;;;7.59;69.59
74633;BME280;63139;52.018;8.552;2023-02-01T11:44:30;100291.28;;;7.57;69.88
74633;BME280;63139;52.018;8.552;2023-02-01T11:47:18;100300.50;;;7.53;69.37
74633;BME280;63139;52.018;8.552;2023-02-01T11:49:48;100297.38;;;7.58;69.67
74633;BME280;63139;52.018;8.552;2023-02-01T11:52:27;100300.41;;;7.63;70.17
74633;BME280;63139;52.018;8.552;2023-02-01T11:55:17;100290.03;;;7.61;71.00
74633;BME280;63139;52.018;8.552;2023-02-01T11:57:57;100291.91;;;7.51;71.19
74633;BME280;63139;52.018;8.552;2023-02-01T12:00:40;100282.66;;;7.47;72.03
74633;BME280;63139;52.018;8.552;2023-02-01T12:03:35;100278.31;;;7.38;72.70
74633;BME280;63139;52.018;8.552;2023-02-01T12:06:15;100274.50;;;7.32;73.18
74633;BME280;63139;52.018;8.552;2023-02-01T12:09:04;100287.13;;;7.11;75.02
74633;BME280;63139;52.018;8.552;2023-02-01T12:11:55;100286.88;;;7.05;75.93
74633;BME280;63139;52.018;8.552;2023-02-01T12:14:43;100295.53;;;6.97;75.85
74633;BME280;63139;52.018;8.552;2023-02-01T12:17:51;100290.03;;;6.90;76.36
74633;BME280;63139;52.018;8.552;2023-02-01T12:20:28;100290.34;;;6.87;76.19
74633;BME280;63139;52.018;8.552;2023-02-01T12:23:14;100290.50;;;6.86;76.47
74633;BME280;63139;52.018;8.552;2023-02-01T12:26:02;100280.16;;;6.75;76.19
74633;BME280;63139;52.018;8.552;2023-02-01T12:29:00;100263.00;;;6.80;76.68
74633;BME280;63139;52.018;8.552;2023-02-01T12:31:56;100260.19;;;6.82;77.28
74633;BME280;63139;52.018;8.552;2023-02-01T12:34:53;100252.16;;;6.66;77.30
74633;BME280;63139;52.018;8.552;2023-02-01T12:37:34;100246.44;;;6.70;77.52
74633;BME280;63139;52.018;8.552;2023-02-01T12:40:21;100256.19;;;6.60;78.31
74633;BME280;63139;52.018;8.552;2023-02-01T12:42:59;100252.13;;;6.48;79.16
74633;BME280;63139;52.018;8.552;2023-02-01T12:45:31;100260.38;;;6.53;79.63
74633;BME280;63139;52.018;8.552;2023-02-01T12:48:13;100250.75;;;6.44;79.71
74633;BME280;63139;52.018;8.552;2023-02-01T12:50:50;100255.63;;;6.39;80.22
74633;BME280;63139;52.018;8.552;2023-02-01T12:53:25;100237.94;;;6.31;81.07
74633;BME280;63139;52.018;8.552;2023-02-01T12:56:00;100237.84;;;6.23;81.11
74633;BME280;63139;52.018;8.552;2023-02-01T12:58:47;100238.03;;;6.21;81.55
74633;BME280;63139;52.018;8.552;2023-02-01T13:01:20;100242.03;;;6.16;82.28
74633;BME280;63139;52.018;8.552;2023-02-01T13:03:55;100230.88;;;6.14;82.62
74633;BME280;63139;52.018;8.552;2023-02-01T13:06:29;100236.28;;;6.03;82.84
74633;BME280;63139;52.018;8.552;2023-02-01T13:09:03;100236.97;;;6.05;82.78
74633;BME280;63139;52.018;8.552;2023-02-01T13:11:34;100237.91;;;6.13;82.54
74633;BME280;63139;52.018;8.552;2023-02-01T13:14:07;100221.59;;;6.10;82.37
74633;BME280;63139;52.018;8.552;2023-02-01T13:16:40;100211.91;;;6.10;82.70
74633;BME280;63139;52.018;8.552;2023-02-01T13:19:13;100217.97;;;6.20;82.51
74633;BME280;63139;52.018;8.552;2023-02-01T13:21:46;100219.53;;;6.31;82.26
74633;BME280;63139;52.018;8.552;2023-02-01T13:24:27;100206.41;;;6.31;82.43
74633;BME280;63139;52.018;8.552;2023-02-01T13:26:59;100196.72;;;6.32;82.20
74633;BME280;63139;52.018;8.552;2023-02-01T13:29:29;100204.50;;;6.23;82.25
74633;BME280;63139;52.018;8.552;2023-02-01T13:32:10;100214.34;;;6.21;82.68